sensor_id;sensor_type;location;lat;lon;timestamp;P1;P2;P0
46681;PMS5003;34101;53.430;-2.224;2022-09-09T00:02:13;6;6;
46681;PMS5003;34101;53.430;-2.224;2022-09-09T00:04:46;7;6;
46681;PMS5003;34101;53.430;-2.224;2022-09-09T00:07:25;6;6;
46681;PMS5003;34101;53.430;-2.224;2022-09-09T00:10:05;6;6;
46681;PMS5003;34101;53.430;-2.224;2022-09-09T00:12:46;6;6;
46681;PMS5003;34101;53.430;-2.224;2022-09-09T00:15:25;5;5;
46681;PMS5003;34101;53.430;-2.224;2022-09-09T00:17:59;6;6;
46681;PMS5003;34101;53.430;-2.224;2022-09-09T00:20:34;6;6;
46681;PMS5003;34101;53.430;-2.224;2022-09-09T00:23:10;8;8;
46681;PMS5003;34101;53.430;-2.224;2022-09-09T00:25:42;6;6;
46681;PMS5003;34101;53.430;-2.224;2022-09-09T00:28:18;6;6;
46681;PMS5003;34101;53.430;-2.224;2022-09-09T00:30:46;6;6;
46681;PMS5003;34101;53.430;-2.224;2022-09-09T00:33:15;5;5;
46681;PMS5003;34101;53.430;-2.224;2022-09-09T00:35:47;7;6;
46681;PMS5003;34101;53.430;-2.224;2022-09-09T00:38:17;7;6;
46681;PMS5003;34101;53.430;-2.224;2022-09-09T00:40:49;4;4;
46681;PMS5003;34101;53.430;-2.224;2022-09-09T00:43:23;7;7;
46681;PMS5003;34101;53.430;-2.224;2022-09-09T00:45:59;5;5;
46681;PMS5003;34101;53.430;-2.224;2022-09-09T00:48:40;6;6;
46681;PMS5003;34101;53.430;-2.224;2022-09-09T00:51:17;7;6;
46681;PMS5003;34101;53.430;-2.224;2022-09-09T00:53:58;9;6;
46681;PMS5003;34101;53.430;-2.224;2022-09-09T00:56:42;9;9;
46681;PMS5003;34101;53.430;-2.224;2022-09-09T00:59:20;6;6;
46681;PMS5003;34101;53.430;-2.224;2022-09-09T01:01:55;7;7;
46681;PMS5003;34101;53.430;-2.224;2022-09-09T01:04:24;7;6;
46681;PMS5003;34101;53.430;-2.224;2022-09-09T01:07:00;8;6;
46681;PMS5003;34101;53.430;-2.224;2022-09-09T01:09:32;8;8;
46681;PMS5003;34101;53.430;-2.224;2022-09-09T01:12:09;9;7;
46681;PMS5003;34101;53.430;-2.224;2022-09-09T01:14:42;7;7;
46681;PMS5003;34101;53.430;-2.224;2022-09-09T01:17:15;7;7;
46681;PMS5003;34101;53.430;-2.224;2022-09-09T01:19:50;6;6;
46681;PMS5003;34101;53.430;-2.224;2022-09-09T01:22:31;7;7;
46681;PMS5003;34101;53.430;-2.224;2022-09-09T01:27:15;6;6;
46681;PMS5003;34101;53.430;-2.224;2022-09-09T01:29:43;7;7;
46681;PMS5003;34101;53.430;-2.224;2022-09-09T01:32:44;7;7;
46681;PMS5003;34101;53.430;-2.224;2022-09-09T01:35:12;6;6;
46681;PMS5003;34101;53.430;-2.224;2022-09-09T01:37:48;11;10;
46681;PMS5003;34101;53.430;-2.224;2022-09-09T01:40:15;8;8;
46681;PMS5003;34101;53.430;-2.224;2022-09-09T01:42:42;8;8;
46681;PMS5003;34101;53.430;-2.224;2022-09-09T01:45:10;11;9;
46681;PMS5003;34101;53.430;-2.224;2022-09-09T01:47:37;12;10;
46681;PMS5003;34101;53.430;-2.224;2022-09-09T01:50:05;12;9;
46681;PMS5003;34101;53.430;-2.224;2022-09-09T01:52:37;12;12;
46681;PMS5003;34101;53.430;-2.224;2022-09-09T01:55:05;11;10;
46681;PMS5003;34101;53.430;-2.224;2022-09-09T01:57:35;14;14;
46681;PMS5003;34101;53.430;-2.224;2022-09-09T02:00:09;11;11;
46681;PMS5003;34101;53.430;-2.224;2022-09-09T02:02:39;12;10;
46681;PMS5003;34101;53.430;-2.224;2022-09-09T02:05:18;13;12;
46681;PMS5003;34101;53.430;-2.224;2022-09-09T02:07:55;10;10;
46681;PMS5003;34101;53.430;-2.224;2022-09-09T02:10:30;10;10;
46681;PMS5003;34101;53.430;-2.224;2022-09-09T02:13:04;13;9;
46681;PMS5003;34101;53.430;-2.224;2022-09-09T02:15:39;12;12;
46681;PMS5003;34101;53.430;-2.224;2022-09-09T02:18:12;13;11;
46681;PMS5003;34101;53.430;-2.224;2022-09-09T02:20:42;12;12;
46681;PMS5003;34101;53.430;-2.224;2022-09-09T02:23:11;12;12;
46681;PMS5003;34101;53.430;-2.224;2022-09-09T02:25:41;11;10;
46681;PMS5003;34101;53.430;-2.224;2022-09-09T02:28:10;13;13;
46681;PMS5003;34101;53.430;-2.224;2022-09-09T02:30:40;11;11;
46681;PMS5003;34101;53.430;-2.224;2022-09-09T02:33:10;13;13;
46681;PMS5003;34101;53.430;-2.224;2022-09-09T02:35:40;12;12;
46681;PMS5003;34101;53.430;-2.224;2022-09-09T02:38:09;12;11;
46681;PMS5003;34101;53.430;-2.224;2022-09-09T02:40:40;13;12;
46681;PMS5003;34101;53.430;-2.224;2022-09-09T02:43:07;12;10;
46681;PMS5003;34101;53.430;-2.224;2022-09-09T02:45:36;13;11;
46681;PMS5003;34101;53.430;-2.224;2022-09-09T02:48:10;16;13;
46681;PMS5003;34101;53.430;-2.224;2022-09-09T02:50:46;14;13;
46681;PMS5003;34101;53.430;-2.224;2022-09-09T02:53:23;15;13;
46681;PMS5003;34101;53.430;-2.224;2022-09-09T02:55:59;15;15;
46681;PMS5003;34101;53.430;-2.224;2022-09-09T02:58:31;18;17;
46681;PMS5003;34101;53.430;-2.224;2022-09-09T03:00:58;16;16;
46681;PMS5003;34101;53.430;-2.224;2022-09-09T03:03:26;12;12;
46681;PMS5003;34101;53.430;-2.224;2022-09-09T03:05:53;21;19;
46681;PMS5003;34101;53.430;-2.224;2022-09-09T03:08:22;14;14;
46681;PMS5003;34101;53.430;-2.224;2022-09-09T03:10:49;13;13;
46681;PMS5003;34101;53.430;-2.224;2022-09-09T03:13:17;17;17;
46681;PMS5003;34101;53.430;-2.224;2022-09-09T03:15:45;15;15;
46681;PMS5003;34101;53.430;-2.224;2022-09-09T03:18:13;24;23;
46681;PMS5003;34101;53.430;-2.224;2022-09-09T03:20:41;20;20;
46681;PMS5003;34101;53.430;-2.224;2022-09-09T03:23:08;19;19;
46681;PMS5003;34101;53.430;-2.224;2022-09-09T03:25:36;18;17;
46681;PMS5003;34101;53.430;-2.224;2022-09-09T03:28:03;17;16;
46681;PMS5003;34101;53.430;-2.224;2022-09-09T03:30:30;17;17;
46681;PMS5003;34101;53.430;-2.224;2022-09-09T03:32:57;14;14;
46681;PMS5003;34101;53.430;-2.224;2022-09-09T03:35:24;25;24;
46681;PMS5003;34101;53.430;-2.224;2022-09-09T03:37:52;18;16;
46681;PMS5003;34101;53.430;-2.224;2022-09-09T03:40:19;19;19;
46681;PMS5003;34101;53.430;-2.224;2022-09-09T03:42:46;20;20;
46681;PMS5003;34101;53.430;-2.224;2022-09-09T03:45:13;16;15;
46681;PMS5003;34101;53.430;-2.224;2022-09-09T03:47:40;18;18;
46681;PMS5003;34101;53.430;-2.224;2022-09-09T03:50:08;17;17;
46681;PMS5003;34101;53.430;-2.224;2022-09-09T03:52:35;21;19;
46681;PMS5003;34101;53.430;-2.224;2022-09-09T03:55:03;19;18;
46681;PMS5003;34101;53.430;-2.224;2022-09-09T03:57:32;15;15;
46681;PMS5003;34101;53.430;-2.224;2022-09-09T04:00:02;19;19;
46681;PMS5003;34101;53.430;-2.224;2022-09-09T04:02:30;18;17;
46681;PMS5003;34101;53.430;-2.224;2022-09-09T04:04:57;17;17;
46681;PMS5003;34101;53.430;-2.224;2022-09-09T04:07:23;18;16;
46681;PMS5003;34101;53.430;-2.224;2022-09-09T04:09:52;18;17;
46681;PMS5003;34101;53.430;-2.224;2022-09-09T04:12:19;18;18;
46681;PMS5003;34101;53.430;-2.224;2022-09-09T04:14:47;17;15;
46681;PMS5003;34101;53.430;-2.224;2022-09-09T04:17:14;19;19;
46681;PMS5003;34101;53.430;-2.224;2022-09-09T04:19:41;22;21;
46681;PMS5003;34101;53.430;-2.224;2022-09-09T04:22:08;22;20;
46681;PMS5003;34101;53.430;-2.224;2022-09-09T04:24:35;20;19;
46681;PMS5003;34101;53.430;-2.224;2022-09-09T04:27:03;19;16;
46681;PMS5003;34101;53.430;-2.224;2022-09-09T04:29:30;20;19;
46681;PMS5003;34101;53.430;-2.224;2022-09-09T04:31:57;22;22;
46681;PMS5003;34101;53.430;-2.224;2022-09-09T04:34:25;22;20;
46681;PMS5003;34101;53.430;-2.224;2022-09-09T04:36:52;20;17;
46681;PMS5003;34101;53.430;-2.224;2022-09-09T04:39:19;18;17;
46681;PMS5003;34101;53.430;-2.224;2022-09-09T04:41:47;19;19;
46681;PMS5003;34101;53.430;-2.224;2022-09-09T04:44:14;20;20;
46681;PMS5003;34101;53.430;-2.224;2022-09-09T04:46:42;15;14;
46681;PMS5003;34101;53.430;-2.224;2022-09-09T04:49:09;19;19;
46681;PMS5003;34101;53.430;-2.224;2022-09-09T04:51:37;19;17;
46681;PMS5003;34101;53.430;-2.224;2022-09-09T04:54:04;23;18;
46681;PMS5003;34101;53.430;-2.224;2022-09-09T04:56:32;18;18;
46681;PMS5003;34101;53.430;-2.224;2022-09-09T04:59:00;17;17;
46681;PMS5003;34101;53.430;-2.224;2022-09-09T05:01:28;18;17;
46681;PMS5003;34101;53.430;-2.224;2022-09-09T05:03:55;18;15;
46681;PMS5003;34101;53.430;-2.224;2022-09-09T05:06:22;17;17;
46681;PMS5003;34101;53.430;-2.224;2022-09-09T05:08:49;18;16;
46681;PMS5003;34101;53.430;-2.224;2022-09-09T05:11:18;18;17;
46681;PMS5003;34101;53.430;-2.224;2022-09-09T05:13:47;20;18;
46681;PMS5003;34101;53.430;-2.224;2022-09-09T05:16:14;18;18;
46681;PMS5003;34101;53.430;-2.224;2022-09-09T05:18:42;21;19;
46681;PMS5003;34101;53.430;-2.224;2022-09-09T05:21:11;15;13;
46681;PMS5003;34101;53.430;-2.224;2022-09-09T05:23:39;18;18;
46681;PMS5003;34101;53.430;-2.224;2022-09-09T05:26:07;16;15;
46681;PMS5003;34101;53.430;-2.224;2022-09-09T05:28:38;15;15;
46681;PMS5003;34101;53.430;-2.224;2022-09-09T05:31:06;13;13;
46681;PMS5003;34101;53.430;-2.224;2022-09-09T05:33:35;22;19;
46681;PMS5003;34101;53.430;-2.224;2022-09-09T05:36:04;16;16;
46681;PMS5003;34101;53.430;-2.224;2022-09-09T05:38:34;13;13;
46681;PMS5003;34101;53.430;-2.224;2022-09-09T05:41:02;15;14;
46681;PMS5003;34101;53.430;-2.224;2022-09-09T05:43:29;14;12;
46681;PMS5003;34101;53.430;-2.224;2022-09-09T05:46:00;15;13;
46681;PMS5003;34101;53.430;-2.224;2022-09-09T05:48:30;16;14;
46681;PMS5003;34101;53.430;-2.224;2022-09-09T05:50:58;18;16;
46681;PMS5003;34101;53.430;-2.224;2022-09-09T05:53:25;15;13;
46681;PMS5003;34101;53.430;-2.224;2022-09-09T05:56:00;17;15;
46681;PMS5003;34101;53.430;-2.224;2022-09-09T05:58:29;16;14;
46681;PMS5003;34101;53.430;-2.224;2022-09-09T06:01:04;17;16;
46681;PMS5003;34101;53.430;-2.224;2022-09-09T06:03:33;14;14;
46681;PMS5003;34101;53.430;-2.224;2022-09-09T06:06:01;13;13;
46681;PMS5003;34101;53.430;-2.224;2022-09-09T06:08:29;14;13;
46681;PMS5003;34101;53.430;-2.224;2022-09-09T06:11:00;13;13;
46681;PMS5003;34101;53.430;-2.224;2022-09-09T06:13:30;15;14;
46681;PMS5003;34101;53.430;-2.224;2022-09-09T06:15:58;14;14;
46681;PMS5003;34101;53.430;-2.224;2022-09-09T06:18:26;12;12;
46681;PMS5003;34101;53.430;-2.224;2022-09-09T06:20:54;16;14;
46681;PMS5003;34101;53.430;-2.224;2022-09-09T06:23:22;14;14;
46681;PMS5003;34101;53.430;-2.224;2022-09-09T06:25:50;14;14;
46681;PMS5003;34101;53.430;-2.224;2022-09-09T06:28:17;14;14;
46681;PMS5003;34101;53.430;-2.224;2022-09-09T06:30:44;14;13;
46681;PMS5003;34101;53.430;-2.224;2022-09-09T06:33:12;14;13;
46681;PMS5003;34101;53.430;-2.224;2022-09-09T06:35:39;10;10;
46681;PMS5003;34101;53.430;-2.224;2022-09-09T06:38:06;12;12;
46681;PMS5003;34101;53.430;-2.224;2022-09-09T06:40:34;13;12;
46681;PMS5003;34101;53.430;-2.224;2022-09-09T06:43:01;14;14;
46681;PMS5003;34101;53.430;-2.224;2022-09-09T06:45:28;12;12;
46681;PMS5003;34101;53.430;-2.224;2022-09-09T06:47:56;16;14;
46681;PMS5003;34101;53.430;-2.224;2022-09-09T06:50:23;14;13;
46681;PMS5003;34101;53.430;-2.224;2022-09-09T06:52:50;13;12;
46681;PMS5003;34101;53.430;-2.224;2022-09-09T06:55:18;14;14;
46681;PMS5003;34101;53.430;-2.224;2022-09-09T06:57:45;12;11;
46681;PMS5003;34101;53.430;-2.224;2022-09-09T07:00:13;12;12;
46681;PMS5003;34101;53.430;-2.224;2022-09-09T07:02:41;13;12;
46681;PMS5003;34101;53.430;-2.224;2022-09-09T07:05:09;12;11;
46681;PMS5003;34101;53.430;-2.224;2022-09-09T07:07:36;13;12;
46681;PMS5003;34101;53.430;-2.224;2022-09-09T07:10:04;13;11;
46681;PMS5003;34101;53.430;-2.224;2022-09-09T07:12:32;12;12;
46681;PMS5003;34101;53.430;-2.224;2022-09-09T07:14:59;13;12;
46681;PMS5003;34101;53.430;-2.224;2022-09-09T07:17:26;12;11;
46681;PMS5003;34101;53.430;-2.224;2022-09-09T07:19:54;12;10;
46681;PMS5003;34101;53.430;-2.224;2022-09-09T07:22:21;8;8;
46681;PMS5003;34101;53.430;-2.224;2022-09-09T07:24:48;13;12;
46681;PMS5003;34101;53.430;-2.224;2022-09-09T07:27:16;10;10;
46681;PMS5003;34101;53.430;-2.224;2022-09-09T07:29:43;10;10;
46681;PMS5003;34101;53.430;-2.224;2022-09-09T07:32:11;11;11;
46681;PMS5003;34101;53.430;-2.224;2022-09-09T07:34:38;10;10;
46681;PMS5003;34101;53.430;-2.224;2022-09-09T07:37:05;10;10;
46681;PMS5003;34101;53.430;-2.224;2022-09-09T07:39:33;8;8;
46681;PMS5003;34101;53.430;-2.224;2022-09-09T07:42:00;10;10;
46681;PMS5003;34101;53.430;-2.224;2022-09-09T07:44:28;10;9;
46681;PMS5003;34101;53.430;-2.224;2022-09-09T07:46:55;8;8;
46681;PMS5003;34101;53.430;-2.224;2022-09-09T07:49:22;11;11;
46681;PMS5003;34101;53.430;-2.224;2022-09-09T07:51:50;7;7;
46681;PMS5003;34101;53.430;-2.224;2022-09-09T07:54:18;10;10;
46681;PMS5003;34101;53.430;-2.224;2022-09-09T07:56:47;7;7;
46681;PMS5003;34101;53.430;-2.224;2022-09-09T07:59:15;11;11;
46681;PMS5003;34101;53.430;-2.224;2022-09-09T08:01:44;10;9;
46681;PMS5003;34101;53.430;-2.224;2022-09-09T08:04:13;11;9;
46681;PMS5003;34101;53.430;-2.224;2022-09-09T08:06:43;11;11;
46681;PMS5003;34101;53.430;-2.224;2022-09-09T08:09:12;9;9;
46681;PMS5003;34101;53.430;-2.224;2022-09-09T08:11:40;10;9;
46681;PMS5003;34101;53.430;-2.224;2022-09-09T08:14:08;10;10;
46681;PMS5003;34101;53.430;-2.224;2022-09-09T08:16:37;10;10;
46681;PMS5003;34101;53.430;-2.224;2022-09-09T08:19:07;13;11;
46681;PMS5003;34101;53.430;-2.224;2022-09-09T08:21:36;12;12;
46681;PMS5003;34101;53.430;-2.224;2022-09-09T08:24:05;11;8;
46681;PMS5003;34101;53.430;-2.224;2022-09-09T08:26:35;9;9;
46681;PMS5003;34101;53.430;-2.224;2022-09-09T08:29:04;13;10;
46681;PMS5003;34101;53.430;-2.224;2022-09-09T08:31:33;11;11;
46681;PMS5003;34101;53.430;-2.224;2022-09-09T08:34:02;12;10;
46681;PMS5003;34101;53.430;-2.224;2022-09-09T08:36:33;12;11;
46681;PMS5003;34101;53.430;-2.224;2022-09-09T08:39:03;12;8;
46681;PMS5003;34101;53.430;-2.224;2022-09-09T08:41:34;12;12;
46681;PMS5003;34101;53.430;-2.224;2022-09-09T08:44:20;11;10;
46681;PMS5003;34101;53.430;-2.224;2022-09-09T08:46:58;14;10;
46681;PMS5003;34101;53.430;-2.224;2022-09-09T08:49:40;10;10;
46681;PMS5003;34101;53.430;-2.224;2022-09-09T08:52:22;9;9;
46681;PMS5003;34101;53.430;-2.224;2022-09-09T08:54:53;8;8;
46681;PMS5003;34101;53.430;-2.224;2022-09-09T08:57:25;7;7;
46681;PMS5003;34101;53.430;-2.224;2022-09-09T08:59:54;11;9;
46681;PMS5003;34101;53.430;-2.224;2022-09-09T09:02:24;10;10;
46681;PMS5003;34101;53.430;-2.224;2022-09-09T09:05:05;9;9;
46681;PMS5003;34101;53.430;-2.224;2022-09-09T09:07:47;11;8;
46681;PMS5003;34101;53.430;-2.224;2022-09-09T09:10:28;8;8;
46681;PMS5003;34101;53.430;-2.224;2022-09-09T09:13:07;6;6;
46681;PMS5003;34101;53.430;-2.224;2022-09-09T09:15:41;6;6;
46681;PMS5003;34101;53.430;-2.224;2022-09-09T09:18:11;6;6;
46681;PMS5003;34101;53.430;-2.224;2022-09-09T09:20:41;6;6;
46681;PMS5003;34101;53.430;-2.224;2022-09-09T09:23:17;7;5;
46681;PMS5003;34101;53.430;-2.224;2022-09-09T09:25:48;7;5;
46681;PMS5003;34101;53.430;-2.224;2022-09-09T09:28:20;7;7;
46681;PMS5003;34101;53.430;-2.224;2022-09-09T09:30:52;7;7;
46681;PMS5003;34101;53.430;-2.224;2022-09-09T09:33:25;5;5;
46681;PMS5003;34101;53.430;-2.224;2022-09-09T09:35:58;5;5;
46681;PMS5003;34101;53.430;-2.224;2022-09-09T09:38:26;8;4;
46681;PMS5003;34101;53.430;-2.224;2022-09-09T09:40:55;3;3;
46681;PMS5003;34101;53.430;-2.224;2022-09-09T09:43:25;4;4;
46681;PMS5003;34101;53.430;-2.224;2022-09-09T09:45:54;7;5;
46681;PMS5003;34101;53.430;-2.224;2022-09-09T09:48:23;4;4;
46681;PMS5003;34101;53.430;-2.224;2022-09-09T09:50:53;5;5;
46681;PMS5003;34101;53.430;-2.224;2022-09-09T09:53:24;8;4;
46681;PMS5003;34101;53.430;-2.224;2022-09-09T09:55:54;6;5;
46681;PMS5003;34101;53.430;-2.224;2022-09-09T09:58:24;7;7;
46681;PMS5003;34101;53.430;-2.224;2022-09-09T10:00:53;5;5;
46681;PMS5003;34101;53.430;-2.224;2022-09-09T10:03:23;5;5;
46681;PMS5003;34101;53.430;-2.224;2022-09-09T10:05:52;5;5;
46681;PMS5003;34101;53.430;-2.224;2022-09-09T10:08:20;11;7;
46681;PMS5003;34101;53.430;-2.224;2022-09-09T10:11:24;8;6;
46681;PMS5003;34101;53.430;-2.224;2022-09-09T10:13:59;4;4;
46681;PMS5003;34101;53.430;-2.224;2022-09-09T10:16:39;6;6;
46681;PMS5003;34101;53.430;-2.224;2022-09-09T10:19:17;8;6;
46681;PMS5003;34101;53.430;-2.224;2022-09-09T10:21:57;5;5;
46681;PMS5003;34101;53.430;-2.224;2022-09-09T10:24:39;9;7;
46681;PMS5003;34101;53.430;-2.224;2022-09-09T10:27:16;5;5;
46681;PMS5003;34101;53.430;-2.224;2022-09-09T10:29:54;6;6;
46681;PMS5003;34101;53.430;-2.224;2022-09-09T10:32:36;4;4;
46681;PMS5003;34101;53.430;-2.224;2022-09-09T10:35:12;8;8;
46681;PMS5003;34101;53.430;-2.224;2022-09-09T10:37:56;7;6;
46681;PMS5003;34101;53.430;-2.224;2022-09-09T10:40:48;6;6;
46681;PMS5003;34101;53.430;-2.224;2022-09-09T10:43:39;5;4;
46681;PMS5003;34101;53.430;-2.224;2022-09-09T10:46:20;4;4;
46681;PMS5003;34101;53.430;-2.224;2022-09-09T10:49:00;2;2;
46681;PMS5003;34101;53.430;-2.224;2022-09-09T10:51:37;4;3;
46681;PMS5003;34101;53.430;-2.224;2022-09-09T10:54:13;2;2;
46681;PMS5003;34101;53.430;-2.224;2022-09-09T10:56:54;5;2;
46681;PMS5003;34101;53.430;-2.224;2022-09-09T10:59:26;3;3;
46681;PMS5003;34101;53.430;-2.224;2022-09-09T11:01:58;5;5;
46681;PMS5003;34101;53.430;-2.224;2022-09-09T11:04:33;7;5;
46681;PMS5003;34101;53.430;-2.224;2022-09-09T11:07:07;3;3;
46681;PMS5003;34101;53.430;-2.224;2022-09-09T11:09:37;6;5;
46681;PMS5003;34101;53.430;-2.224;2022-09-09T11:12:09;6;5;
46681;PMS5003;34101;53.430;-2.224;2022-09-09T11:14:45;5;5;
46681;PMS5003;34101;53.430;-2.224;2022-09-09T11:17:18;8;6;
46681;PMS5003;34101;53.430;-2.224;2022-09-09T11:19:47;5;5;
46681;PMS5003;34101;53.430;-2.224;2022-09-09T11:22:16;6;4;
46681;PMS5003;34101;53.430;-2.224;2022-09-09T11:24:52;4;4;
46681;PMS5003;34101;53.430;-2.224;2022-09-09T11:27:26;5;5;
46681;PMS5003;34101;53.430;-2.224;2022-09-09T11:30:02;7;6;
46681;PMS5003;34101;53.430;-2.224;2022-09-09T11:32:58;8;7;
46681;PMS5003;34101;53.430;-2.224;2022-09-09T11:35:48;6;6;
46681;PMS5003;34101;53.430;-2.224;2022-09-09T11:38:32;7;6;
46681;PMS5003;34101;53.430;-2.224;2022-09-09T11:41:09;7;7;
46681;PMS5003;34101;53.430;-2.224;2022-09-09T11:43:38;7;7;
46681;PMS5003;34101;53.430;-2.224;2022-09-09T11:46:09;6;6;
46681;PMS5003;34101;53.430;-2.224;2022-09-09T11:48:38;9;7;
46681;PMS5003;34101;53.430;-2.224;2022-09-09T11:51:07;8;7;
46681;PMS5003;34101;53.430;-2.224;2022-09-09T11:53:46;10;5;
46681;PMS5003;34101;53.430;-2.224;2022-09-09T11:56:24;6;6;
46681;PMS5003;34101;53.430;-2.224;2022-09-09T11:58:54;10;8;
46681;PMS5003;34101;53.430;-2.224;2022-09-09T12:01:28;9;7;
46681;PMS5003;34101;53.430;-2.224;2022-09-09T12:04:06;6;6;
46681;PMS5003;34101;53.430;-2.224;2022-09-09T12:06:41;3;3;
46681;PMS5003;34101;53.430;-2.224;2022-09-09T12:09:13;7;4;
46681;PMS5003;34101;53.430;-2.224;2022-09-09T12:11:46;4;4;
46681;PMS5003;34101;53.430;-2.224;2022-09-09T12:14:19;10;8;
46681;PMS5003;34101;53.430;-2.224;2022-09-09T12:16:48;8;8;
46681;PMS5003;34101;53.430;-2.224;2022-09-09T12:19:18;9;9;
46681;PMS5003;34101;53.430;-2.224;2022-09-09T12:21:50;10;9;
46681;PMS5003;34101;53.430;-2.224;2022-09-09T12:24:27;8;7;
46681;PMS5003;34101;53.430;-2.224;2022-09-09T12:27:02;9;9;
46681;PMS5003;34101;53.430;-2.224;2022-09-09T12:29:39;9;9;
46681;PMS5003;34101;53.430;-2.224;2022-09-09T12:32:15;16;14;
46681;PMS5003;34101;53.430;-2.224;2022-09-09T12:34:47;10;10;
46681;PMS5003;34101;53.430;-2.224;2022-09-09T12:37:21;12;12;
46681;PMS5003;34101;53.430;-2.224;2022-09-09T12:39:54;11;11;
46681;PMS5003;34101;53.430;-2.224;2022-09-09T12:42:23;10;10;
46681;PMS5003;34101;53.430;-2.224;2022-09-09T12:44:53;13;13;
46681;PMS5003;34101;53.430;-2.224;2022-09-09T12:47:23;9;9;
46681;PMS5003;34101;53.430;-2.224;2022-09-09T12:49:57;11;11;
46681;PMS5003;34101;53.430;-2.224;2022-09-09T12:52:26;9;7;
46681;PMS5003;34101;53.430;-2.224;2022-09-09T12:54:57;9;8;
46681;PMS5003;34101;53.430;-2.224;2022-09-09T12:57:29;6;6;
46681;PMS5003;34101;53.430;-2.224;2022-09-09T13:00:06;7;5;
46681;PMS5003;34101;53.430;-2.224;2022-09-09T13:02:45;6;6;
46681;PMS5003;34101;53.430;-2.224;2022-09-09T13:05:15;4;4;
46681;PMS5003;34101;53.430;-2.224;2022-09-09T13:07:46;7;7;
46681;PMS5003;34101;53.430;-2.224;2022-09-09T13:10:14;5;5;
46681;PMS5003;34101;53.430;-2.224;2022-09-09T13:12:50;6;6;
46681;PMS5003;34101;53.430;-2.224;2022-09-09T13:15:19;8;6;
46681;PMS5003;34101;53.430;-2.224;2022-09-09T13:17:50;5;5;
46681;PMS5003;34101;53.430;-2.224;2022-09-09T13:20:19;9;8;
46681;PMS5003;34101;53.430;-2.224;2022-09-09T13:22:48;5;5;
46681;PMS5003;34101;53.430;-2.224;2022-09-09T13:25:18;6;4;
46681;PMS5003;34101;53.430;-2.224;2022-09-09T13:27:52;2;2;
46681;PMS5003;34101;53.430;-2.224;2022-09-09T13:30:24;3;3;
46681;PMS5003;34101;53.430;-2.224;2022-09-09T13:33:23;5;4;
46681;PMS5003;34101;53.430;-2.224;2022-09-09T13:35:56;5;5;
46681;PMS5003;34101;53.430;-2.224;2022-09-09T13:38:25;9;6;
46681;PMS5003;34101;53.430;-2.224;2022-09-09T13:40:55;5;5;
46681;PMS5003;34101;53.430;-2.224;2022-09-09T13:43:24;6;5;
46681;PMS5003;34101;53.430;-2.224;2022-09-09T13:45:57;5;5;
46681;PMS5003;34101;53.430;-2.224;2022-09-09T13:48:26;5;5;
46681;PMS5003;34101;53.430;-2.224;2022-09-09T13:50:55;5;5;
46681;PMS5003;34101;53.430;-2.224;2022-09-09T13:53:23;5;4;
46681;PMS5003;34101;53.430;-2.224;2022-09-09T13:55:50;6;6;
46681;PMS5003;34101;53.430;-2.224;2022-09-09T13:58:19;7;7;
46681;PMS5003;34101;53.430;-2.224;2022-09-09T14:00:46;9;7;
46681;PMS5003;34101;53.430;-2.224;2022-09-09T14:03:14;6;6;
46681;PMS5003;34101;53.430;-2.224;2022-09-09T14:05:41;4;4;
46681;PMS5003;34101;53.430;-2.224;2022-09-09T14:08:11;5;5;
46681;PMS5003;34101;53.430;-2.224;2022-09-09T14:10:46;5;5;
46681;PMS5003;34101;53.430;-2.224;2022-09-09T14:13:14;1;1;
46681;PMS5003;34101;53.430;-2.224;2022-09-09T14:15:41;2;2;
46681;PMS5003;34101;53.430;-2.224;2022-09-09T14:18:09;1;1;
46681;PMS5003;34101;53.430;-2.224;2022-09-09T14:20:37;3;1;
46681;PMS5003;34101;53.430;-2.224;2022-09-09T14:23:05;1;1;
46681;PMS5003;34101;53.430;-2.224;2022-09-09T14:25:33;1;1;
46681;PMS5003;34101;53.430;-2.224;2022-09-09T14:28:01;1;1;
46681;PMS5003;34101;53.430;-2.224;2022-09-09T14:30:28;2;2;
46681;PMS5003;34101;53.430;-2.224;2022-09-09T14:32:55;1;1;
46681;PMS5003;34101;53.430;-2.224;2022-09-09T14:35:23;0;0;
46681;PMS5003;34101;53.430;-2.224;2022-09-09T14:37:50;1;1;
46681;PMS5003;34101;53.430;-2.224;2022-09-09T14:40:18;0;0;
46681;PMS5003;34101;53.430;-2.224;2022-09-09T14:42:45;1;1;
46681;PMS5003;34101;53.430;-2.224;2022-09-09T14:45:13;1;0;
46681;PMS5003;34101;53.430;-2.224;2022-09-09T14:47:40;0;0;
46681;PMS5003;34101;53.430;-2.224;2022-09-09T14:50:07;2;0;
46681;PMS5003;34101;53.430;-2.224;2022-09-09T14:52:35;0;0;
46681;PMS5003;34101;53.430;-2.224;2022-09-09T14:55:02;3;3;
46681;PMS5003;34101;53.430;-2.224;2022-09-09T14:57:30;0;0;
46681;PMS5003;34101;53.430;-2.224;2022-09-09T14:59:58;2;2;
46681;PMS5003;34101;53.430;-2.224;2022-09-09T15:02:25;1;1;
46681;PMS5003;34101;53.430;-2.224;2022-09-09T15:04:53;0;0;
46681;PMS5003;34101;53.430;-2.224;2022-09-09T15:07:20;1;1;
46681;PMS5003;34101;53.430;-2.224;2022-09-09T15:09:48;2;2;
46681;PMS5003;34101;53.430;-2.224;2022-09-09T15:12:15;1;1;
46681;PMS5003;34101;53.430;-2.224;2022-09-09T15:14:42;3;3;
46681;PMS5003;34101;53.430;-2.224;2022-09-09T15:17:10;1;1;
46681;PMS5003;34101;53.430;-2.224;2022-09-09T15:19:38;2;2;
46681;PMS5003;34101;53.430;-2.224;2022-09-09T15:22:05;2;2;
46681;PMS5003;34101;53.430;-2.224;2022-09-09T15:24:33;2;2;
46681;PMS5003;34101;53.430;-2.224;2022-09-09T15:27:01;2;2;
46681;PMS5003;34101;53.430;-2.224;2022-09-09T15:29:29;3;3;
46681;PMS5003;34101;53.430;-2.224;2022-09-09T15:31:57;3;3;
46681;PMS5003;34101;53.430;-2.224;2022-09-09T15:34:24;3;2;
46681;PMS5003;34101;53.430;-2.224;2022-09-09T15:36:52;2;2;
46681;PMS5003;34101;53.430;-2.224;2022-09-09T15:39:19;5;3;
46681;PMS5003;34101;53.430;-2.224;2022-09-09T15:41:47;3;2;
46681;PMS5003;34101;53.430;-2.224;2022-09-09T15:44:14;5;5;
46681;PMS5003;34101;53.430;-2.224;2022-09-09T15:46:43;3;3;
46681;PMS5003;34101;53.430;-2.224;2022-09-09T15:49:11;3;3;
46681;PMS5003;34101;53.430;-2.224;2022-09-09T15:51:39;2;2;
46681;PMS5003;34101;53.430;-2.224;2022-09-09T15:54:08;2;2;
46681;PMS5003;34101;53.430;-2.224;2022-09-09T15:56:36;3;3;
46681;PMS5003;34101;53.430;-2.224;2022-09-09T15:59:04;4;2;
46681;PMS5003;34101;53.430;-2.224;2022-09-09T16:01:32;3;3;
46681;PMS5003;34101;53.430;-2.224;2022-09-09T16:03:59;2;2;
46681;PMS5003;34101;53.430;-2.224;2022-09-09T16:06:27;3;3;
46681;PMS5003;34101;53.430;-2.224;2022-09-09T16:08:55;2;2;
46681;PMS5003;34101;53.430;-2.224;2022-09-09T16:11:26;3;2;
46681;PMS5003;34101;53.430;-2.224;2022-09-09T16:13:56;3;2;
46681;PMS5003;34101;53.430;-2.224;2022-09-09T16:16:24;2;2;
46681;PMS5003;34101;53.430;-2.224;2022-09-09T16:18:52;3;3;
46681;PMS5003;34101;53.430;-2.224;2022-09-09T16:21:22;3;2;
46681;PMS5003;34101;53.430;-2.224;2022-09-09T16:23:51;4;3;
46681;PMS5003;34101;53.430;-2.224;2022-09-09T16:26:19;2;2;
46681;PMS5003;34101;53.430;-2.224;2022-09-09T16:28:47;2;2;
46681;PMS5003;34101;53.430;-2.224;2022-09-09T16:31:17;3;3;
46681;PMS5003;34101;53.430;-2.224;2022-09-09T16:33:47;3;3;
46681;PMS5003;34101;53.430;-2.224;2022-09-09T16:36:16;2;2;
46681;PMS5003;34101;53.430;-2.224;2022-09-09T16:38:45;3;3;
46681;PMS5003;34101;53.430;-2.224;2022-09-09T16:41:12;2;2;
46681;PMS5003;34101;53.430;-2.224;2022-09-09T16:43:40;2;2;
46681;PMS5003;34101;53.430;-2.224;2022-09-09T16:46:12;3;3;